.
WxDataArchive / Data Records for 2015-05-04
2015-05-03 May 2015 2015-05-05

Data Records for Monday, 04 May 2015

Time	Temp	Chill	HIndex	Humid	Dewpt	 Wind 	HiWind	WindDir	Rain 	Barom
-----	----	-----	------	-----	-----	------	------	-------	-----	-----
00:00	65.3	65.3	65.3	54	48.2	0	0	---	0.00	29.979 
00:05	65.2	65.2	65.2	54	48.1	0	0	---	0.00	29.979 
00:10	65.0	65.0	65.0	54	47.9	0	1	270	0.00	29.979 
00:15	65.0	65.0	65.0	54	47.9	0	0	---	0.00	29.985 
00:20	65.0	65.0	65.0	54	47.9	0	1	270	0.00	29.985 
00:25	65.0	65.0	65.0	54	47.9	0	0	---	0.00	29.985 
00:30	64.8	64.8	64.8	54	47.8	0	0	---	0.00	29.989 
00:35	64.7	64.7	64.7	54	47.7	0	1	270	0.00	29.989 
00:40	64.7	64.7	64.7	54	47.7	0	0	---	0.00	29.989 
00:45	64.7	64.7	64.7	54	47.7	0	1	270	0.00	29.989 
00:50	64.5	64.5	64.5	54	47.5	0	2	270	0.00	29.989 
00:55	64.5	64.5	64.5	54	47.5	0	1	270	0.00	29.989 
01:00	64.3	64.3	64.3	54	47.3	0	1	270	0.00	29.993 
01:05	64.3	64.3	64.3	55	47.8	0	0	---	0.00	29.993 
01:10	64.0	64.0	64.0	55	47.5	0	0	---	0.00	29.993 
01:15	63.9	63.9	63.9	56	47.9	0	1	270	0.00	29.992 
01:20	63.7	63.7	63.7	56	47.7	0	1	270	0.00	29.992 
01:25	63.5	63.5	63.5	56	47.5	0	0	---	0.00	29.992 
01:30	63.4	63.4	63.4	57	47.9	0	0	---	0.00	29.998 
01:35	63.2	63.2	63.2	57	47.7	0	0	---	0.00	29.998 
01:40	63.1	63.1	63.1	57	47.6	0	0	---	0.00	29.998 
01:45	62.9	62.9	62.9	58	47.9	0	0	---	0.00	29.996 
01:50	62.9	62.9	62.9	58	47.9	0	0	---	0.00	29.996 
01:55	62.7	62.7	62.7	58	47.7	0	1	270	0.00	29.996 
02:00	62.7	62.7	62.7	58	47.7	0	0	---	0.00	29.994 
02:05	62.6	62.6	62.6	58	47.6	0	0	---	0.00	29.994 
02:10	62.6	62.6	62.6	59	48.1	0	0	---	0.00	29.994 
02:15	62.6	62.6	62.6	59	48.1	0	0	---	0.00	29.991 
02:20	62.6	62.6	62.6	58	47.6	0	0	---	0.00	29.991 
02:25	62.7	62.7	62.7	58	47.7	0	1	270	0.00	29.991 
02:30	62.9	62.9	62.9	58	47.9	0	0	---	0.00	29.990 
02:35	63.1	63.1	63.1	58	48.1	0	0	---	0.00	29.990 
02:40	63.2	63.2	63.2	57	47.7	0	1	270	0.00	29.990 
02:45	63.4	63.4	63.4	57	47.9	0	1	270	0.00	29.988 
02:50	63.4	63.4	63.4	57	47.9	0	1	270	0.00	29.988 
02:55	63.5	63.5	63.5	57	48.0	0	0	---	0.00	29.988 
03:00	63.7	63.7	63.7	56	47.7	0	1	270	0.00	29.987 
03:05	63.7	63.7	63.7	57	48.2	0	1	270	0.00	29.987 
03:10	63.7	63.7	63.7	56	47.7	0	1	270	0.00	29.987 
03:15	63.9	63.9	63.9	57	48.4	0	0	---	0.00	29.987 
03:20	63.9	63.9	63.9	56	47.9	0	1	270	0.00	29.987 
03:25	63.9	63.9	63.9	57	48.4	0	1	270	0.00	29.987 
03:30	63.9	63.9	63.9	57	48.4	0	0	---	0.00	29.986 
03:35	63.9	63.9	63.9	57	48.4	0	1	270	0.00	29.986 
03:40	63.7	63.7	63.7	57	48.2	0	0	---	0.00	29.986 
03:45	63.5	63.5	63.5	57	48.0	0	1	270	0.00	29.984 
03:50	63.4	63.4	63.4	58	48.4	0	1	270	0.00	29.984 
03:55	63.2	63.2	63.2	58	48.2	0	0	---	0.00	29.984 
04:00	63.1	63.1	63.1	58	48.1	0	0	---	0.00	29.985 
04:05	63.1	63.1	63.1	59	48.5	0	1	270	0.00	29.985 
04:10	62.9	62.9	62.9	59	48.3	0	1	270	0.00	29.985 
04:15	62.7	62.7	62.7	59	48.2	0	0	---	0.00	29.988 
04:20	62.6	62.6	62.6	59	48.1	0	0	---	0.00	29.988 
04:25	62.4	62.4	62.4	60	48.3	0	0	---	0.00	29.988 
04:30	62.3	62.3	62.3	60	48.2	0	1	270	0.00	29.990 
04:35	62.1	62.1	62.1	61	48.5	0	0	---	0.00	29.990 
04:40	62.0	62.0	62.0	61	48.4	0	1	270	0.00	29.990 
04:45	61.8	61.8	61.8	61	48.2	0	0	---	0.00	29.991 
04:50	61.6	61.6	61.6	62	48.4	0	0	---	0.00	29.991 
04:55	61.5	61.5	61.5	62	48.4	0	1	270	0.00	29.991 
05:00	61.5	61.5	61.5	62	48.4	0	0	---	0.00	29.987 
05:05	61.5	61.5	61.5	63	48.8	0	1	270	0.00	29.987 
05:10	61.5	61.5	61.5	63	48.8	0	1	270	0.00	29.987 
05:15	61.6	61.6	61.6	62	48.4	0	2	270	0.00	29.986 
05:20	61.6	61.6	61.6	62	48.4	0	0	---	0.00	29.986 
05:25	61.6	61.6	61.6	62	48.4	0	1	270	0.00	29.986 
05:30	61.6	61.6	61.6	62	48.4	0	1	270	0.00	29.985 
05:35	61.6	61.6	61.6	62	48.4	0	0	---	0.00	29.985 
05:40	61.5	61.5	61.5	62	48.4	0	1	270	0.00	29.985 
05:45	61.5	61.5	61.5	62	48.4	0	1	270	0.00	29.984 
05:50	61.3	61.3	61.3	62	48.2	0	0	---	0.00	29.984 
05:55	61.3	61.3	61.3	62	48.2	0	1	270	0.00	29.984 
06:00	61.2	61.2	61.2	63	48.5	0	1	270	0.00	29.986 
06:05	61.0	61.0	61.0	63	48.3	0	1	270	0.00	29.986 
06:10	60.9	60.9	60.9	63	48.2	0	0	---	0.00	29.986 
06:15	60.7	60.7	60.7	63	48.0	0	1	270	0.00	29.989 
06:20	60.7	60.7	60.7	63	48.0	0	1	270	0.00	29.989 
06:25	60.9	60.9	60.9	63	48.2	0	2	270	0.00	29.989 
06:30	60.9	60.9	60.9	63	48.2	0	2	270	0.00	29.989 
06:35	61.0	61.0	61.0	62	47.9	0	2	270	0.00	29.989 
06:40	61.0	61.0	61.0	63	48.3	0	1	270	0.00	29.989 
06:45	61.2	61.2	61.2	62	48.1	0	2	270	0.00	29.989 
06:50	61.2	61.2	61.2	62	48.1	0	1	270	0.00	29.989 
06:55	61.3	61.3	61.3	62	48.2	0	2	270	0.00	29.989 
07:00	61.5	61.5	61.5	62	48.4	0	2	270	0.00	29.989 
07:05	61.6	61.6	61.6	62	48.4	0	1	270	0.00	29.989 
07:10	61.6	61.6	61.6	62	48.4	0	1	270	0.00	29.989 
07:15	61.6	61.6	61.6	62	48.4	0	1	270	0.00	29.992 
07:20	61.8	61.8	61.8	62	48.6	0	2	270	0.00	29.992 
07:25	62.0	62.0	62.0	62	48.8	0	4	292	0.00	29.992 
07:30	62.0	62.0	62.0	62	48.8	0	1	292	0.00	29.997 
07:35	62.1	62.1	62.1	62	48.9	0	1	292	0.00	29.997 
07:40	62.3	62.3	62.3	61	48.7	0	1	292	0.00	29.997 
07:45	62.6	62.6	62.6	60	48.5	0	3	270	0.00	30.008 
07:50	62.9	62.9	62.9	59	48.3	0	1	270	0.00	30.008 
07:55	63.1	63.1	63.1	59	48.5	0	1	270	0.00	30.008 
08:00	63.2	63.2	63.2	59	48.6	0	1	270	0.00	30.019 
08:05	63.5	63.5	63.5	59	48.9	0	1	270	0.00	30.019 
08:10	63.7	63.7	63.7	58	48.6	0	1	270	0.00	30.019 
08:15	64.0	64.0	64.0	58	48.9	0	2	270	0.00	30.024 
08:20	64.2	64.2	64.2	57	48.6	0	2	270	0.00	30.024 
08:25	64.3	64.3	64.3	57	48.7	0	4	270	0.00	30.024 
08:30	64.5	64.5	64.5	58	49.4	1	5	270	0.00	30.022 
08:35	64.7	64.7	64.7	57	49.1	1	2	270	0.00	30.022 
08:40	64.8	64.8	64.8	57	49.2	0	2	270	0.00	30.022 
08:45	65.0	65.0	65.0	56	48.9	1	4	270	0.00	30.024 
08:50	65.0	65.0	65.0	57	49.4	0	2	270	0.00	30.024 
08:55	65.2	65.2	65.2	56	49.1	0	2	270	0.00	30.024 
09:00	65.3	65.3	65.3	55	48.7	1	3	270	0.00	30.026 
09:05	65.5	65.5	65.5	55	48.9	1	3	270	0.00	30.026 
09:10	65.5	65.5	65.5	56	49.4	1	3	248	0.00	30.026 
09:15	65.6	65.6	65.6	56	49.5	1	4	248	0.00	30.028 
09:20	65.6	65.6	65.6	56	49.5	1	4	248	0.00	30.028 
09:25	65.5	65.5	65.5	59	50.8	1	4	270	0.00	30.028 
09:30	65.2	65.2	65.2	62	51.8	1	4	270	0.00	30.039 
09:35	64.5	64.5	64.5	67	53.3	1	3	112	0.01	30.039 
09:40	63.2	63.2	63.2	72	54.0	1	3	202	0.00	30.039 
09:45	62.3	62.3	62.3	75	54.3	0	2	202	0.00	30.048 
09:50	61.6	61.6	61.6	77	54.3	1	2	202	0.00	30.048 
09:55	61.2	61.2	61.2	80	55.0	1	2	202	0.02	30.048 
10:00	60.7	60.7	60.7	83	55.5	1	6	270	0.03	30.072 
10:05	60.1	60.1	60.1	84	55.2	0	2	270	0.00	30.072 
10:10	59.8	59.8	59.8	86	55.6	0	2	270	0.00	30.072 
10:15	59.5	59.5	59.5	87	55.6	0	3	270	0.02	30.076 
10:20	59.3	59.3	59.3	88	55.7	0	2	270	0.01	30.076 
10:25	59.2	59.2	59.2	88	55.6	0	2	270	0.03	30.076 
10:30	59.0	59.0	59.0	89	55.8	0	2	270	0.01	30.081 
10:35	58.9	58.9	58.9	89	55.7	0	1	270	0.00	30.081 
10:40	58.9	58.9	58.9	90	56.0	0	3	270	0.00	30.081 
10:45	58.9	58.9	58.9	90	56.0	0	1	270	0.00	30.085 
10:50	58.9	58.9	58.9	90	56.0	0	1	270	0.00	30.085 
10:55	59.0	59.0	59.0	90	56.1	0	1	270	0.01	30.085 
11:00	59.0	59.0	59.0	90	56.1	0	1	270	0.00	30.082 
11:05	59.2	59.2	59.2	91	56.6	0	1	270	0.00	30.082 
11:10	59.5	59.5	59.5	91	56.9	0	0	---	0.00	30.082 
11:15	59.8	59.8	59.8	91	57.2	0	1	270	0.00	30.090 
11:20	59.9	59.9	59.9	91	57.3	0	2	270	0.00	30.090 
11:25	60.1	60.1	60.1	91	57.5	0	1	270	0.01	30.090 
11:30	60.2	60.2	60.2	91	57.6	0	3	270	0.00	30.090 
11:35	60.4	60.4	60.4	91	57.8	0	2	270	0.00	30.090 
11:40	60.5	60.5	60.5	91	57.9	0	2	270	0.01	30.090 
11:45	60.7	60.7	60.7	91	58.1	0	2	270	0.00	30.091 
11:50	61.0	61.0	61.0	91	58.4	0	1	270	0.00	30.091 
11:55	61.2	61.2	61.2	91	58.5	0	2	270	0.00	30.091 
12:00	61.5	61.5	61.5	91	58.8	0	2	270	0.00	30.094 
12:05	61.6	61.6	61.6	91	58.9	0	1	270	0.00	30.094 
12:10	62.0	62.0	62.0	91	59.3	0	2	270	0.00	30.094 
12:15	62.3	62.3	62.3	91	59.6	0	1	270	0.00	30.090 
12:20	62.3	62.3	62.3	91	59.6	0	1	270	0.00	30.090 
12:25	62.6	62.6	62.6	91	59.9	0	2	270	0.00	30.090 
12:30	62.7	62.7	62.7	90	59.7	0	1	270	0.00	30.089 
12:35	62.7	62.7	62.7	90	59.7	0	2	270	0.00	30.089 
12:40	62.9	62.9	62.9	89	59.6	0	1	270	0.00	30.089 
12:45	62.9	62.9	62.9	89	59.6	0	1	270	0.00	30.091 
12:50	63.2	63.2	63.2	89	59.9	0	2	270	0.00	30.091 
12:55	63.4	63.4	63.4	89	60.1	0	2	270	0.00	30.091 
13:00	63.7	63.7	63.7	88	60.1	0	3	270	0.00	30.089 
13:05	64.3	64.3	64.3	88	60.7	0	2	270	0.00	30.089 
13:10	65.2	65.2	65.2	88	61.6	0	2	270	0.00	30.089 
13:15	65.2	65.2	65.2	85	60.6	1	3	270	0.00	30.085 
13:20	65.2	65.2	65.2	84	60.2	0	1	270	0.00	30.085 
13:25	65.5	65.5	65.5	84	60.5	0	1	270	0.00	30.085 
13:30	65.8	65.8	65.8	84	60.8	0	1	270	0.00	30.085 
13:35	65.6	65.6	65.6	81	59.6	0	1	270	0.00	30.085 
13:40	65.5	65.5	65.5	81	59.5	0	2	270	0.00	30.085 
13:45	65.5	65.5	65.5	81	59.5	0	1	270	0.00	30.097 
13:50	65.6	65.6	65.6	81	59.6	0	2	270	0.00	30.097 
13:55	66.3	66.3	66.3	81	60.3	0	2	270	0.00	30.097 
14:00	66.6	66.6	66.6	80	60.2	0	2	270	0.00	30.101 
14:05	66.8	66.8	66.8	79	60.1	1	5	270	0.00	30.101 
14:10	66.8	66.8	66.8	78	59.7	0	3	270	0.00	30.101 
14:15	67.1	67.1	67.1	78	60.0	0	2	270	0.00	30.101 
14:20	67.1	67.1	67.1	77	59.6	1	4	270	0.00	30.101 
14:25	67.1	67.1	67.1	77	59.6	1	3	270	0.00	30.101 
14:30	67.3	67.3	67.3	78	60.2	0	1	270	0.00	30.103 
14:35	67.6	67.6	67.6	77	60.1	0	1	270	0.00	30.103 
14:40	67.6	67.6	67.6	77	60.1	0	2	270	0.00	30.103 
14:45	67.4	67.4	67.4	76	59.6	0	3	270	0.00	30.103 
14:50	67.4	67.4	67.4	76	59.6	0	2	270	0.00	30.103 
14:55	67.4	67.4	67.4	76	59.6	0	2	270	0.00	30.103 
15:00	67.4	67.4	67.4	77	59.9	0	2	270	0.00	30.106 
15:05	67.4	67.4	67.4	77	59.9	0	2	270	0.00	30.106 
15:10	67.6	67.6	67.6	77	60.1	0	3	270	0.00	30.106 
15:15	67.6	67.6	67.6	77	60.1	0	1	270	0.00	30.113 
15:20	67.6	67.6	67.6	77	60.1	0	2	270	0.00	30.113 
15:25	67.6	67.6	67.6	77	60.1	0	3	270	0.00	30.113 
15:30	67.6	67.6	67.6	78	60.5	0	1	270	0.00	30.115 
15:35	67.4	67.4	67.4	78	60.3	0	1	270	0.00	30.115 
15:40	67.1	67.1	67.1	78	60.0	0	3	270	0.00	30.115 
15:45	66.9	66.9	66.9	79	60.2	0	1	270	0.00	30.119 
15:50	66.9	66.9	66.9	79	60.2	0	2	270	0.00	30.119 
15:55	66.9	66.9	66.9	80	60.5	0	1	270	0.00	30.119 
16:00	67.1	67.1	67.1	80	60.7	0	3	270	0.00	30.120 
16:05	67.4	67.4	67.4	80	61.0	0	2	270	0.00	30.120 
16:10	67.6	67.6	67.6	78	60.5	0	3	248	0.00	30.120 
16:15	67.6	67.6	67.6	78	60.5	1	3	248	0.00	30.117 
16:20	67.6	67.6	67.6	78	60.5	0	2	248	0.00	30.117 
16:25	67.8	67.8	67.8	78	60.7	0	1	248	0.00	30.117 
16:30	67.9	67.9	67.9	79	61.1	0	1	248	0.00	30.116 
16:35	68.1	68.1	68.1	78	61.0	0	1	248	0.00	30.116 
16:40	68.3	68.3	68.3	77	60.8	0	2	248	0.00	30.116 
16:45	68.4	68.4	68.4	77	60.9	0	2	248	0.00	30.114 
16:50	68.6	68.6	68.6	77	61.1	0	1	248	0.00	30.114 
16:55	68.6	68.6	68.6	77	61.1	0	2	248	0.00	30.114 
17:00	68.8	68.8	68.8	77	61.3	0	2	248	0.00	30.110 
17:05	68.9	68.9	68.9	76	61.0	0	1	248	0.00	30.110 
17:10	68.9	68.9	68.9	76	61.0	0	2	248	0.00	30.110 
17:15	68.9	68.9	68.9	76	61.0	0	1	248	0.00	30.106 
17:20	69.1	69.1	69.1	77	61.6	0	3	248	0.00	30.106 
17:25	69.1	69.1	69.1	76	61.2	0	2	248	0.00	30.106 
17:30	69.3	69.3	69.3	76	61.4	0	2	248	0.00	30.106 
17:35	69.8	69.8	69.8	76	61.9	0	2	248	0.00	30.106 
17:40	70.3	70.3	70.3	74	61.6	1	3	248	0.00	30.106 
17:45	70.6	70.6	70.6	73	61.5	0	2	248	0.00	30.104 
17:50	70.8	70.8	70.8	73	61.7	0	3	248	0.00	30.104 
17:55	70.6	70.6	70.6	73	61.5	0	2	248	0.00	30.104 
18:00	70.6	70.6	70.6	73	61.5	0	2	248	0.00	30.103 
18:05	70.4	70.4	70.4	73	61.3	0	1	248	0.00	30.103 
18:10	70.1	70.1	70.1	74	61.4	0	1	248	0.00	30.103 
18:15	69.9	69.9	69.9	74	61.2	0	1	248	0.00	30.102 
18:20	69.8	69.8	69.8	74	61.1	0	1	248	0.00	30.102 
18:25	69.6	69.6	69.6	75	61.3	0	1	248	0.00	30.102 
18:30	69.4	69.4	69.4	75	61.1	0	2	248	0.00	30.106 
18:35	69.3	69.3	69.3	75	61.0	0	1	248	0.00	30.106 
18:40	69.1	69.1	69.1	75	60.8	0	1	248	0.00	30.106 
18:45	68.9	68.9	68.9	76	61.0	0	2	248	0.00	30.111 
18:50	68.8	68.8	68.8	76	60.9	0	2	248	0.00	30.111 
18:55	68.8	68.8	68.8	76	60.9	0	1	248	0.00	30.111 
19:00	68.6	68.6	68.6	77	61.1	0	3	248	0.00	30.117 
19:05	68.4	68.4	68.4	76	60.5	0	3	248	0.00	30.117 
19:10	68.4	68.4	68.4	77	60.9	0	2	248	0.00	30.117 
19:15	68.3	68.3	68.3	77	60.8	0	2	248	0.00	30.118 
19:20	68.3	68.3	68.3	77	60.8	0	1	248	0.00	30.118 
19:25	68.1	68.1	68.1	77	60.6	0	1	248	0.00	30.118 
19:30	68.1	68.1	68.1	77	60.6	0	1	248	0.00	30.116 
19:35	67.9	67.9	67.9	78	60.8	0	1	248	0.00	30.116 
19:40	67.8	67.8	67.8	78	60.7	0	1	248	0.00	30.116 
19:45	67.8	67.8	67.8	79	61.0	0	0	---	0.00	30.119 
19:50	67.6	67.6	67.6	79	60.8	0	0	---	0.00	30.119 
19:55	67.4	67.4	67.4	79	60.7	0	0	---	0.00	30.119 
20:00	67.3	67.3	67.3	79	60.6	0	2	248	0.00	30.121 
20:05	67.1	67.1	67.1	80	60.7	0	0	---	0.00	30.121 
20:10	66.9	66.9	66.9	80	60.5	0	1	248	0.00	30.121 
20:15	66.8	66.8	66.8	80	60.4	0	0	---	0.00	30.121 
20:20	66.6	66.6	66.6	81	60.6	0	0	---	0.00	30.121 
20:25	66.4	66.4	66.4	81	60.4	0	0	---	0.00	30.121 
20:30	66.4	66.4	66.4	81	60.4	0	0	---	0.00	30.125 
20:35	66.3	66.3	66.3	81	60.3	0	0	---	0.00	30.125 
20:40	66.1	66.1	66.1	81	60.1	0	0	---	0.00	30.125 
20:45	66.0	66.0	66.0	81	60.0	0	0	---	0.00	30.130 
20:50	65.8	65.8	65.8	82	60.1	0	0	---	0.00	30.130 
20:55	65.8	65.8	65.8	82	60.1	0	0	---	0.00	30.130 
21:00	65.6	65.6	65.6	82	59.9	0	0	---	0.00	30.132 
21:05	65.5	65.5	65.5	82	59.9	0	0	---	0.00	30.132 
21:10	65.3	65.3	65.3	83	60.0	0	0	---	0.00	30.132 
21:15	65.3	65.3	65.3	83	60.0	0	0	---	0.00	30.138 
21:20	65.2	65.2	65.2	83	59.9	0	0	---	0.00	30.138 
21:25	65.0	65.0	65.0	83	59.7	0	0	---	0.00	30.138 
21:30	65.0	65.0	65.0	84	60.0	0	0	---	0.00	30.144 
21:35	64.8	64.8	64.8	84	59.8	0	0	---	0.00	30.144 
21:40	64.7	64.7	64.7	84	59.7	0	0	---	0.00	30.144 
21:45	64.7	64.7	64.7	84	59.7	0	0	---	0.00	30.153 
21:50	64.5	64.5	64.5	84	59.6	0	0	---	0.00	30.153 
21:55	64.5	64.5	64.5	85	59.9	0	0	---	0.00	30.153 
22:00	64.5	64.5	64.5	85	59.9	0	0	---	0.00	30.155 
22:05	64.3	64.3	64.3	85	59.7	0	0	---	0.00	30.155 
22:10	64.3	64.3	64.3	85	59.7	0	0	---	0.00	30.155 
22:15	64.2	64.2	64.2	86	59.9	0	0	---	0.00	30.159 
22:20	64.0	64.0	64.0	86	59.7	0	0	---	0.00	30.159 
22:25	63.9	63.9	63.9	86	59.6	0	0	---	0.00	30.159 
22:30	63.9	63.9	63.9	86	59.6	0	0	---	0.00	30.159 
22:35	63.7	63.7	63.7	86	59.4	0	0	---	0.00	30.159 
22:40	63.7	63.7	63.7	87	59.8	0	0	---	0.00	30.159 
22:45	63.5	63.5	63.5	87	59.6	0	0	---	0.00	30.163 
22:50	63.4	63.4	63.4	87	59.5	0	0	---	0.00	30.163 
22:55	63.4	63.4	63.4	87	59.5	0	0	---	0.00	30.163 
23:00	63.2	63.2	63.2	88	59.6	0	0	---	0.00	30.159 
23:05	63.2	63.2	63.2	88	59.6	0	0	---	0.00	30.159 
23:10	63.2	63.2	63.2	88	59.6	0	0	---	0.00	30.159 
23:15	63.2	63.2	63.2	88	59.6	0	0	---	0.00	30.156 
23:20	63.1	63.1	63.1	88	59.5	0	0	---	0.00	30.156 
23:25	63.1	63.1	63.1	89	59.8	0	0	---	0.00	30.156 
23:30	63.1	63.1	63.1	89	59.8	0	0	---	0.00	30.155 
23:35	62.9	62.9	62.9	89	59.6	0	0	---	0.00	30.155 
23:40	62.7	62.7	62.7	89	59.4	0	0	---	0.00	30.155 
23:45	62.7	62.7	62.7	89	59.4	0	0	---	0.00	30.155 
23:50	62.6	62.6	62.6	89	59.3	0	0	---	0.00	30.155 
23:55	62.4	62.4	62.4	89	59.1	0	0	---	0.00	30.155 

CoCoRaHS
IN-AL-39
A2 Web Hosting
Creative Commons License
GoDaddy
search engine by freefind advanced

loaded 2018-11-22 06:22:58 • last modified 2010-11-18 10:43:29
Privacy PolicyDisclaimer
• wx.awcolley.com is powered by PmWiki v.2002016 •
• all content (unless otherwise noted) © 2018 A W Colley